Flint, MI (48553)

3:21 AM EDT on September 03, 2015 (GMT -0400)
Dave Grand Blanc | | Change Station
CLOSE
Current Station
Personal Weather Station
Location: Grand Blanc, MI
Elevation: 797 ft
Nearby Weather Stations

Elev 797 ft 42.95 °N, 83.67 °W | Updated 2 seconds ago

Partly Cloudy
Partly Cloudy
69.8 °F
Feels Like 69.8 °F
N
0.0
Wind Variable Wind from NNW
Gusts 0.0 mph

Today
High -- | Low -- °F
--% Chance of Precip.
Yesterday
High -- | Low -- °F
Precip. -- in
7:01 AM 8:06 PM
Waning Gibbous, 73% visible
Pressure 29.95 in
Visibility 9.0 miles
Clouds Few 10000 ft
Dew Point 66 °F
Humidity 89%
Rainfall 0.00 in
Snow Depth Not available.
UV 0 out of 12
Pollen 10.60 out of 12
Air Quality Not available.
Flu Activity Not available.
METAR KFNT 030653Z AUTO 09004KT 9SM FEW100 21/18 A2997 RMK AO2 SLP142 T02110183
Pressure 29.95 in
Visibility 9.0 miles
Clouds Few 10000 ft
Dew Point 66 °F
Humidity 89%
Rainfall 0.00 in
Snow Depth Not available.
UV 0 out of 12
Pollen 10.60 out of 12
Air Quality Not available.
Flu Activity Not available.
METAR KFNT 030653Z AUTO 09004KT 9SM FEW100 21/18 A2997 RMK AO2 SLP142 T02110183

10-Day Weather Forecast

×

Almanac

Astronomy

Sep. 03, 2015 Rise Set
Actual Time
Civil Twilight
Nautical Twilight
Astronomical Twilight
Moon
Length of Visible Light
Length of Day
Tomorrow will be .
, % of the Moon is Illuminated

Today's Extremes

State Highs State Lows

Community

WunderPhotos

Upload Photos

1,851,916 photos uploaded!

WunderBlogs® & News

Nearby

Air Quality

  Air Quality AQ Index Pollutant
Not available.

Snow Depth

Station Depth Elevation

Earthquake Activity

City Distance Mag. Time & Date
Minimum magnitude displayed is 2.5.

Coastal Water Temperatures

Place Temperature

Stations

Nearby Weather Stations

Station Location Temp. Windchill Dew Point Humidity Wind Precip. Elev Updated Type